sensor_id;sensor_type;location;lat;lon;timestamp;pressure;altitude;pressure_sealevel;temperature;humidity
11053;BME280;55230;42.602;23.470;2023-03-19T00:01:26;94000.31;;;0.00;87.55
11053;BME280;55230;42.602;23.470;2023-03-19T00:03:53;93378.41;;;-4.09;87.44
11053;BME280;55230;42.602;23.470;2023-03-19T00:06:20;93990.81;;;-0.04;87.83
11053;BME280;55230;42.602;23.470;2023-03-19T00:08:49;93915.94;;;-0.88;88.34
11053;BME280;55230;42.602;23.470;2023-03-19T00:11:16;93990.63;;;-0.25;89.31
11053;BME280;55230;42.602;23.470;2023-03-19T00:13:43;93777.75;;;-1.52;88.98
11053;BME280;55230;42.602;23.470;2023-03-19T00:16:10;93981.94;;;-0.22;88.80
11053;BME280;55230;42.602;23.470;2023-03-19T00:18:36;93908.75;;;-0.84;89.13
11053;BME280;55230;42.602;23.470;2023-03-19T00:21:03;93980.50;;;-0.16;90.24
11053;BME280;55230;42.602;23.470;2023-03-19T00:23:30;93977.84;;;-0.16;90.20
11053;BME280;55230;42.602;23.470;2023-03-19T00:25:59;93981.25;;;-0.16;90.29
11053;BME280;55230;42.602;23.470;2023-03-19T00:28:26;93972.63;;;-0.06;90.49
11053;BME280;55230;42.602;23.470;2023-03-19T00:30:52;93949.47;;;-0.12;89.55
11053;BME280;55230;42.602;23.470;2023-03-19T00:33:19;93968.16;;;0.09;89.35
11053;BME280;55230;42.602;23.470;2023-03-19T00:35:46;93965.91;;;0.11;88.90
11053;BME280;55230;42.602;23.470;2023-03-19T00:38:13;93964.78;;;0.09;88.44
11053;BME280;55230;42.602;23.470;2023-03-19T00:40:40;93959.81;;;0.07;88.57
11053;BME280;55230;42.602;23.470;2023-03-19T00:43:08;93691.44;;;-1.74;88.26
11053;BME280;55230;42.602;23.470;2023-03-19T00:45:35;93733.91;;;-1.56;88.19
11053;BME280;55230;42.602;23.470;2023-03-19T00:48:02;93893.28;;;-0.35;87.89
11053;BME280;55230;42.602;23.470;2023-03-19T00:50:28;93992.09;;;0.16;87.97
11053;BME280;55230;42.602;23.470;2023-03-19T00:52:55;93936.97;;;-0.15;87.06
11053;BME280;55230;42.602;23.470;2023-03-19T00:55:22;93951.44;;;-0.02;87.40
11053;BME280;55230;42.602;23.470;2023-03-19T00:57:50;93772.44;;;-1.92;86.85
11053;BME280;55230;42.602;23.470;2023-03-19T01:00:18;93916.41;;;-0.29;87.11
11053;BME280;55230;42.602;23.470;2023-03-19T01:02:45;93974.22;;;0.06;87.03
11053;BME280;55230;42.602;23.470;2023-03-19T01:05:12;93908.78;;;-0.37;87.35
11053;BME280;55230;42.602;23.470;2023-03-19T01:07:39;93392.97;;;-3.89;86.88
11053;BME280;55230;42.602;23.470;2023-03-19T01:10:07;93956.69;;;-0.09;87.64
11053;BME280;55230;42.602;23.470;2023-03-19T01:12:34;93959.69;;;-0.14;88.34
11053;BME280;55230;42.602;23.470;2023-03-19T01:15:01;93957.38;;;-0.19;88.43
11053;BME280;55230;42.602;23.470;2023-03-19T01:17:30;93953.56;;;-0.22;88.36
11053;BME280;55230;42.602;23.470;2023-03-19T01:19:56;93807.06;;;-1.27;88.15
11053;BME280;55230;42.602;23.470;2023-03-19T01:22:23;93896.44;;;-0.66;88.11
11053;BME280;55230;42.602;23.470;2023-03-19T01:24:50;93946.78;;;-0.19;88.53
11053;BME280;55230;42.602;23.470;2023-03-19T01:27:17;93941.16;;;-0.14;88.57
11053;BME280;55230;42.602;23.470;2023-03-19T01:29:44;93968.75;;;-0.15;88.23
11053;BME280;55230;42.602;23.470;2023-03-19T01:32:10;93858.59;;;-0.70;88.25
11053;BME280;55230;42.602;23.470;2023-03-19T01:34:39;93670.44;;;-2.00;88.58
11053;BME280;55230;42.602;23.470;2023-03-19T01:37:05;93942.53;;;-0.27;89.08
11053;BME280;55230;42.602;23.470;2023-03-19T01:39:32;93907.41;;;-0.68;90.26
11053;BME280;55230;42.602;23.470;2023-03-19T01:42:00;93934.50;;;-0.38;90.31
11053;BME280;55230;42.602;23.470;2023-03-19T01:44:29;93731.47;;;-1.72;89.80
11053;BME280;55230;42.602;23.470;2023-03-19T01:46:56;93927.69;;;-0.42;90.17
11053;BME280;55230;42.602;23.470;2023-03-19T01:49:24;93929.94;;;-0.44;90.12
11053;BME280;55230;42.602;23.470;2023-03-19T01:51:54;93872.78;;;-0.92;90.13
11053;BME280;55230;42.602;23.470;2023-03-19T01:54:23;93932.16;;;-0.46;90.29
11053;BME280;55230;42.602;23.470;2023-03-19T01:56:54;93931.34;;;-0.57;90.80
11053;BME280;55230;42.602;23.470;2023-03-19T01:59:26;93858.34;;;-1.02;90.52
11053;BME280;55230;42.602;23.470;2023-03-19T02:01:56;93845.41;;;-1.07;89.81
11053;BME280;55230;42.602;23.470;2023-03-19T02:04:24;93590.75;;;-2.82;89.52
11053;BME280;55230;42.602;23.470;2023-03-19T02:06:53;93830.91;;;-1.24;89.53
11053;BME280;55230;42.602;23.470;2023-03-19T02:09:23;93853.72;;;-1.08;89.95
11053;BME280;55230;42.602;23.470;2023-03-19T02:11:51;93879.13;;;-1.00;89.58
11053;BME280;55230;42.602;23.470;2023-03-19T02:14:18;93942.06;;;-0.43;89.49
11053;BME280;55230;42.602;23.470;2023-03-19T02:16:45;93760.22;;;-1.67;89.00
11053;BME280;55230;42.602;23.470;2023-03-19T02:19:14;93953.34;;;-0.50;89.91
11053;BME280;55230;42.602;23.470;2023-03-19T02:21:42;93948.00;;;-0.53;90.00
11053;BME280;55230;42.602;23.470;2023-03-19T02:24:13;93946.09;;;-0.56;90.26
11053;BME280;55230;42.602;23.470;2023-03-19T02:26:44;93440.53;;;-4.30;90.38
11053;BME280;55230;42.602;23.470;2023-03-19T02:29:12;93944.91;;;-0.62;91.14
11053;BME280;55230;42.602;23.470;2023-03-19T02:31:39;93944.13;;;-0.66;91.05
11053;BME280;55230;42.602;23.470;2023-03-19T02:34:32;93941.72;;;-0.78;92.07
11053;BME280;55230;42.602;23.470;2023-03-19T02:37:03;93872.56;;;-1.13;91.66
11053;BME280;55230;42.602;23.470;2023-03-19T02:39:34;93937.16;;;-0.81;92.17
11053;BME280;55230;42.602;23.470;2023-03-19T02:42:05;93878.53;;;-1.24;92.49
11053;BME280;55230;42.602;23.470;2023-03-19T02:44:31;93931.00;;;-0.92;92.15
11053;BME280;55230;42.602;23.470;2023-03-19T02:46:58;93894.06;;;-1.19;92.15
11053;BME280;55230;42.602;23.470;2023-03-19T02:49:25;93892.94;;;-1.21;92.17
11053;BME280;55230;42.602;23.470;2023-03-19T02:51:52;93840.88;;;-1.47;91.79
11053;BME280;55230;42.602;23.470;2023-03-19T02:54:19;93937.25;;;-0.74;91.45
11053;BME280;55230;42.602;23.470;2023-03-19T02:56:46;93843.97;;;-1.41;91.32
11053;BME280;55230;42.602;23.470;2023-03-19T02:59:14;93816.94;;;-1.61;90.67
11053;BME280;55230;42.602;23.470;2023-03-19T03:01:41;93944.56;;;-0.61;90.62
11053;BME280;55230;42.602;23.470;2023-03-19T03:04:08;93944.97;;;-0.55;90.78
11053;BME280;55230;42.602;23.470;2023-03-19T03:06:35;93949.56;;;-0.49;90.27
11053;BME280;55230;42.602;23.470;2023-03-19T03:09:02;93945.00;;;-0.48;90.27
11053;BME280;55230;42.602;23.470;2023-03-19T03:11:29;93945.78;;;-0.48;90.16
11053;BME280;55230;42.602;23.470;2023-03-19T03:13:56;93951.13;;;-0.44;89.97
11053;BME280;55230;42.602;23.470;2023-03-19T03:16:24;93963.75;;;-0.67;89.87
11053;BME280;55230;42.602;23.470;2023-03-19T03:18:51;93876.88;;;-1.02;89.90
11053;BME280;55230;42.602;23.470;2023-03-19T03:21:18;93954.50;;;-0.47;90.01
11053;BME280;55230;42.602;23.470;2023-03-19T03:23:45;93903.88;;;-0.82;89.72
11053;BME280;55230;42.602;23.470;2023-03-19T03:26:12;93959.34;;;-0.56;90.26
11053;BME280;55230;42.602;23.470;2023-03-19T03:28:39;93966.13;;;-0.59;90.54
11053;BME280;55230;42.602;23.470;2023-03-19T03:31:06;93949.69;;;-0.78;90.58
11053;BME280;55230;42.602;23.470;2023-03-19T03:33:35;93963.00;;;-0.68;90.68
11053;BME280;55230;42.602;23.470;2023-03-19T03:36:02;93948.03;;;-1.27;90.64
11053;BME280;55230;42.602;23.470;2023-03-19T03:38:28;93545.63;;;-3.40;90.19
11053;BME280;55230;42.602;23.470;2023-03-19T03:40:57;93980.00;;;-0.69;90.92
11053;BME280;55230;42.602;23.470;2023-03-19T03:43:24;93768.00;;;-2.17;91.51
11053;BME280;55230;42.602;23.470;2023-03-19T03:45:51;93971.31;;;-0.69;91.46
11053;BME280;55230;42.602;23.470;2023-03-19T03:48:17;93970.13;;;-0.75;91.32
11053;BME280;55230;42.602;23.470;2023-03-19T03:50:46;93984.47;;;-0.80;91.46
11053;BME280;55230;42.602;23.470;2023-03-19T03:53:13;93981.03;;;-0.80;91.66
11053;BME280;55230;42.602;23.470;2023-03-19T03:55:40;94017.03;;;-1.09;91.78
11053;BME280;55230;42.602;23.470;2023-03-19T03:58:07;93974.84;;;-0.91;91.97
11053;BME280;55230;42.602;23.470;2023-03-19T04:00:34;94047.97;;;-1.13;92.74
11053;BME280;55230;42.602;23.470;2023-03-19T04:03:01;93972.41;;;-1.07;92.55
11053;BME280;55230;42.602;23.470;2023-03-19T04:05:28;94055.22;;;-1.06;92.72
11053;BME280;55230;42.602;23.470;2023-03-19T04:07:57;93950.91;;;-1.39;92.70
11053;BME280;55230;42.602;23.470;2023-03-19T04:10:24;93977.28;;;-1.46;92.94
11053;BME280;55230;42.602;23.470;2023-03-19T04:12:51;93888.38;;;-1.87;92.81
11053;BME280;55230;42.602;23.470;2023-03-19T04:15:18;93802.25;;;-2.24;93.34
11053;BME280;55230;42.602;23.470;2023-03-19T04:17:44;93977.94;;;-1.19;93.72
11053;BME280;55230;42.602;23.470;2023-03-19T04:20:12;93988.28;;;-1.10;93.80
11053;BME280;55230;42.602;23.470;2023-03-19T04:22:40;93978.47;;;-1.06;93.32
11053;BME280;55230;42.602;23.470;2023-03-19T04:25:09;93911.88;;;-1.49;93.52
11053;BME280;55230;42.602;23.470;2023-03-19T04:27:36;93979.84;;;-1.20;93.41
11053;BME280;55230;42.602;23.470;2023-03-19T04:30:03;93938.19;;;-1.30;93.37
11053;BME280;55230;42.602;23.470;2023-03-19T04:32:30;93985.41;;;-0.98;93.45
11053;BME280;55230;42.602;23.470;2023-03-19T04:34:57;93953.16;;;-1.41;93.72
11053;BME280;55230;42.602;23.470;2023-03-19T04:37:24;93639.38;;;-3.39;94.11
11053;BME280;55230;42.602;23.470;2023-03-19T04:39:51;93962.13;;;-1.16;95.17
11053;BME280;55230;42.602;23.470;2023-03-19T04:42:20;93996.44;;;-0.89;95.84
11053;BME280;55230;42.602;23.470;2023-03-19T04:44:47;93987.88;;;-0.76;95.86
11053;BME280;55230;42.602;23.470;2023-03-19T04:47:13;93983.88;;;-0.63;95.73
11053;BME280;55230;42.602;23.470;2023-03-19T04:49:40;93934.06;;;-0.90;94.87
11053;BME280;55230;42.602;23.470;2023-03-19T04:52:07;93883.09;;;-1.21;93.72
11053;BME280;55230;42.602;23.470;2023-03-19T04:54:34;93989.22;;;-0.12;92.66
11053;BME280;55230;42.602;23.470;2023-03-19T04:57:01;93999.44;;;-0.14;91.98
11053;BME280;55230;42.602;23.470;2023-03-19T04:59:29;93739.75;;;-1.77;90.91
11053;BME280;55230;42.602;23.470;2023-03-19T05:01:56;94024.41;;;0.32;91.36
11053;BME280;55230;42.602;23.470;2023-03-19T05:04:23;93996.47;;;0.52;90.59
11053;BME280;55230;42.602;23.470;2023-03-19T05:06:50;94020.19;;;0.89;87.74
11053;BME280;55230;42.602;23.470;2023-03-19T05:09:18;93999.03;;;1.13;86.70
11053;BME280;55230;42.602;23.470;2023-03-19T05:11:45;93997.53;;;1.19;85.47
11053;BME280;55230;42.602;23.470;2023-03-19T05:14:11;94000.66;;;1.53;84.28
11053;BME280;55230;42.602;23.470;2023-03-19T05:16:39;94021.22;;;1.77;81.98
11053;BME280;55230;42.602;23.470;2023-03-19T05:19:06;93901.91;;;1.05;82.53
11053;BME280;55230;42.602;23.470;2023-03-19T05:21:33;93710.31;;;0.26;80.43
11053;BME280;55230;42.602;23.470;2023-03-19T05:24:00;94013.25;;;2.33;79.20
11053;BME280;55230;42.602;23.470;2023-03-19T05:26:26;94005.59;;;2.64;77.22
11053;BME280;55230;42.602;23.470;2023-03-19T05:28:53;94005.16;;;2.93;74.98
11053;BME280;55230;42.602;23.470;2023-03-19T05:31:20;94005.06;;;3.11;74.68
11053;BME280;55230;42.602;23.470;2023-03-19T05:33:48;93704.63;;;1.23;74.54
11053;BME280;55230;42.602;23.470;2023-03-19T05:36:15;94038.19;;;3.13;74.16
11053;BME280;55230;42.602;23.470;2023-03-19T05:38:42;93743.28;;;1.59;73.72
11053;BME280;55230;42.602;23.470;2023-03-19T05:41:09;93756.97;;;0.69;75.14
11053;BME280;55230;42.602;23.470;2023-03-19T05:43:35;93955.44;;;2.55;75.28
11053;BME280;55230;42.602;23.470;2023-03-19T05:46:02;93936.75;;;2.69;74.38
11053;BME280;55230;42.602;23.470;2023-03-19T05:48:29;93795.47;;;2.25;71.86
11053;BME280;55230;42.602;23.470;2023-03-19T05:50:57;94011.44;;;3.41;71.04
11053;BME280;55230;42.602;23.470;2023-03-19T05:53:25;93999.06;;;3.72;71.87
11053;BME280;55230;42.602;23.470;2023-03-19T05:55:51;93935.25;;;3.40;71.30
11053;BME280;55230;42.602;23.470;2023-03-19T05:58:18;94000.97;;;4.23;69.48
11053;BME280;55230;42.602;23.470;2023-03-19T06:00:45;94004.47;;;4.16;68.74
11053;BME280;55230;42.602;23.470;2023-03-19T06:03:13;93825.28;;;2.71;67.17
11053;BME280;55230;42.602;23.470;2023-03-19T06:05:39;93994.53;;;3.66;70.03
11053;BME280;55230;42.602;23.470;2023-03-19T06:08:07;93966.09;;;3.48;70.40
11053;BME280;55230;42.602;23.470;2023-03-19T06:10:34;93782.69;;;1.81;70.18
11053;BME280;55230;42.602;23.470;2023-03-19T06:13:01;93971.44;;;3.41;69.88
11053;BME280;55230;42.602;23.470;2023-03-19T06:15:29;93904.59;;;3.11;71.34
11053;BME280;55230;42.602;23.470;2023-03-19T06:17:56;94001.06;;;4.16;70.88
11053;BME280;55230;42.602;23.470;2023-03-19T06:20:23;93440.22;;;0.35;70.09
11053;BME280;55230;42.602;23.470;2023-03-19T06:22:50;93942.34;;;3.65;73.43
11053;BME280;55230;42.602;23.470;2023-03-19T06:25:18;94007.28;;;4.46;71.11
11053;BME280;55230;42.602;23.470;2023-03-19T06:27:45;94011.94;;;4.35;71.95
11053;BME280;55230;42.602;23.470;2023-03-19T06:30:13;94004.75;;;3.78;75.92
11053;BME280;55230;42.602;23.470;2023-03-19T06:32:39;94010.72;;;3.30;80.04
11053;BME280;55230;42.602;23.470;2023-03-19T06:35:07;94031.91;;;3.59;80.13
11053;BME280;55230;42.602;23.470;2023-03-19T06:37:34;94000.47;;;3.18;81.75
11053;BME280;55230;42.602;23.470;2023-03-19T06:40:02;93777.38;;;1.78;81.37
11053;BME280;55230;42.602;23.470;2023-03-19T06:42:30;93922.91;;;3.02;83.06
11053;BME280;55230;42.602;23.470;2023-03-19T06:44:57;93977.00;;;2.89;81.44
11053;BME280;55230;42.602;23.470;2023-03-19T06:47:24;93990.91;;;3.31;83.48
11053;BME280;55230;42.602;23.470;2023-03-19T06:49:51;93980.69;;;3.16;84.14
11053;BME280;55230;42.602;23.470;2023-03-19T06:52:18;93606.25;;;1.51;78.51
11053;BME280;55230;42.602;23.470;2023-03-19T06:54:44;94032.47;;;4.86;75.02
11053;BME280;55230;42.602;23.470;2023-03-19T06:57:11;94031.16;;;5.01;73.00
11053;BME280;55230;42.602;23.470;2023-03-19T06:59:39;94016.66;;;5.36;70.83
11053;BME280;55230;42.602;23.470;2023-03-19T07:02:08;94042.59;;;5.05;71.23
11053;BME280;55230;42.602;23.470;2023-03-19T07:04:35;94035.34;;;5.36;72.91
11053;BME280;55230;42.602;23.470;2023-03-19T07:07:02;93731.44;;;2.60;74.94
11053;BME280;55230;42.602;23.470;2023-03-19T07:09:30;93773.50;;;2.83;74.64
11053;BME280;55230;42.602;23.470;2023-03-19T07:11:56;93906.41;;;3.28;80.18
11053;BME280;55230;42.602;23.470;2023-03-19T07:14:23;93854.16;;;2.76;79.72
11053;BME280;55230;42.602;23.470;2023-03-19T07:16:52;94043.78;;;4.12;77.02
11053;BME280;55230;42.602;23.470;2023-03-19T07:19:18;94016.06;;;3.92;77.43
11053;BME280;55230;42.602;23.470;2023-03-19T07:21:45;94037.94;;;4.72;76.67
11053;BME280;55230;42.602;23.470;2023-03-19T07:24:12;94055.84;;;4.75;75.66
11053;BME280;55230;42.602;23.470;2023-03-19T07:26:39;93941.13;;;4.24;75.15
11053;BME280;55230;42.602;23.470;2023-03-19T07:29:06;94036.13;;;4.99;73.19
11053;BME280;55230;42.602;23.470;2023-03-19T07:31:33;93997.22;;;4.98;71.48
11053;BME280;55230;42.602;23.470;2023-03-19T07:34:01;94040.41;;;4.93;73.83
11053;BME280;55230;42.602;23.470;2023-03-19T07:36:28;94049.00;;;5.11;72.02
11053;BME280;55230;42.602;23.470;2023-03-19T07:38:55;93717.59;;;2.83;72.92
11053;BME280;55230;42.602;23.470;2023-03-19T07:41:22;94039.31;;;4.87;72.11
11053;BME280;55230;42.602;23.470;2023-03-19T07:43:49;94037.44;;;4.84;73.49
11053;BME280;55230;42.602;23.470;2023-03-19T07:46:15;93928.31;;;4.05;73.23
11053;BME280;55230;42.602;23.470;2023-03-19T07:48:42;94023.88;;;5.05;72.82
11053;BME280;55230;42.602;23.470;2023-03-19T07:51:11;93570.66;;;2.06;71.58
11053;BME280;55230;42.602;23.470;2023-03-19T07:53:38;93908.81;;;4.11;73.53
11053;BME280;55230;42.602;23.470;2023-03-19T07:56:05;93765.03;;;2.98;72.61
11053;BME280;55230;42.602;23.470;2023-03-19T07:58:32;94038.06;;;5.66;72.24
11053;BME280;55230;42.602;23.470;2023-03-19T08:00:59;94014.53;;;6.11;73.64
11053;BME280;55230;42.602;23.470;2023-03-19T08:03:26;93762.66;;;4.26;67.15
11053;BME280;55230;42.602;23.470;2023-03-19T08:05:53;93928.22;;;5.50;67.14
11053;BME280;55230;42.602;23.470;2023-03-19T08:08:22;94033.94;;;6.41;68.22
11053;BME280;55230;42.602;23.470;2023-03-19T08:10:48;93807.31;;;4.82;67.99
11053;BME280;55230;42.602;23.470;2023-03-19T08:13:15;93861.28;;;4.70;67.80
11053;BME280;55230;42.602;23.470;2023-03-19T08:15:42;93671.44;;;3.37;67.18
11053;BME280;55230;42.602;23.470;2023-03-19T08:18:09;93953.47;;;5.45;66.59
11053;BME280;55230;42.602;23.470;2023-03-19T08:20:35;94044.91;;;6.50;65.72
11053;BME280;55230;42.602;23.470;2023-03-19T08:23:03;93985.53;;;6.06;63.87
11053;BME280;55230;42.602;23.470;2023-03-19T08:25:31;94054.72;;;6.80;61.92
11053;BME280;55230;42.602;23.470;2023-03-19T08:27:58;93963.88;;;6.20;61.93
11053;BME280;55230;42.602;23.470;2023-03-19T08:30:25;93995.91;;;6.27;60.02
11053;BME280;55230;42.602;23.470;2023-03-19T08:32:52;94002.91;;;6.21;61.68
11053;BME280;55230;42.602;23.470;2023-03-19T08:35:19;93940.75;;;6.52;63.73
11053;BME280;55230;42.602;23.470;2023-03-19T08:37:46;93948.72;;;6.56;58.71
11053;BME280;55230;42.602;23.470;2023-03-19T08:40:13;94031.78;;;6.79;58.61
11053;BME280;55230;42.602;23.470;2023-03-19T08:42:41;94037.72;;;6.90;59.93
11053;BME280;55230;42.602;23.470;2023-03-19T08:45:09;94021.97;;;6.92;61.75
11053;BME280;55230;42.602;23.470;2023-03-19T08:47:36;94031.66;;;7.09;59.31
11053;BME280;55230;42.602;23.470;2023-03-19T08:50:04;94031.78;;;7.22;57.61
11053;BME280;55230;42.602;23.470;2023-03-19T08:52:32;93994.00;;;6.93;60.18
11053;BME280;55230;42.602;23.470;2023-03-19T08:54:58;94023.53;;;7.32;57.80
11053;BME280;55230;42.602;23.470;2023-03-19T08:57:25;93905.84;;;6.56;57.45
11053;BME280;55230;42.602;23.470;2023-03-19T08:59:53;93794.31;;;5.83;58.36
11053;BME280;55230;42.602;23.470;2023-03-19T09:02:20;93998.84;;;7.21;62.43
11053;BME280;55230;42.602;23.470;2023-03-19T09:04:47;94013.91;;;7.35;57.95
11053;BME280;55230;42.602;23.470;2023-03-19T09:07:14;93997.41;;;7.36;57.36
11053;BME280;55230;42.602;23.470;2023-03-19T09:09:42;93952.22;;;7.70;59.13
11053;BME280;55230;42.602;23.470;2023-03-19T09:12:12;94008.66;;;7.67;55.42
11053;BME280;55230;42.602;23.470;2023-03-19T09:14:40;94005.03;;;7.93;55.92
11053;BME280;55230;42.602;23.470;2023-03-19T09:17:08;94015.53;;;8.03;58.60
11053;BME280;55230;42.602;23.470;2023-03-19T09:19:35;94004.56;;;7.78;57.82
11053;BME280;55230;42.602;23.470;2023-03-19T09:22:03;93916.03;;;7.23;57.35
11053;BME280;55230;42.602;23.470;2023-03-19T09:24:29;93954.41;;;7.40;56.79
11053;BME280;55230;42.602;23.470;2023-03-19T09:26:56;94006.38;;;7.65;57.69
11053;BME280;55230;42.602;23.470;2023-03-19T09:29:23;93984.47;;;7.86;56.46
11053;BME280;55230;42.602;23.470;2023-03-19T09:31:50;93973.41;;;8.00;55.14
11053;BME280;55230;42.602;23.470;2023-03-19T09:34:18;93991.50;;;8.64;57.65
11053;BME280;55230;42.602;23.470;2023-03-19T09:36:45;93594.00;;;6.37;54.87
11053;BME280;55230;42.602;23.470;2023-03-19T09:39:11;93977.22;;;8.96;54.84
11053;BME280;55230;42.602;23.470;2023-03-19T09:41:47;93745.84;;;7.88;50.44
11053;BME280;55230;42.602;23.470;2023-03-19T09:44:19;93972.03;;;8.89;52.44
11053;BME280;55230;42.602;23.470;2023-03-19T09:46:51;94001.56;;;9.62;50.48
11053;BME280;55230;42.602;23.470;2023-03-19T09:49:24;93952.69;;;9.76;52.40
11053;BME280;55230;42.602;23.470;2023-03-19T09:51:54;93904.38;;;9.31;48.70
11053;BME280;55230;42.602;23.470;2023-03-19T09:54:27;93985.00;;;9.76;49.74
11053;BME280;55230;42.602;23.470;2023-03-19T09:56:55;93723.00;;;7.52;50.15
11053;BME280;55230;42.602;23.470;2023-03-19T09:59:23;93984.31;;;9.47;49.61
11053;BME280;55230;42.602;23.470;2023-03-19T10:01:55;93970.69;;;8.97;50.63
11053;BME280;55230;42.602;23.470;2023-03-19T10:04:45;93993.41;;;9.08;51.65
11053;BME280;55230;42.602;23.470;2023-03-19T10:07:26;93910.31;;;8.98;49.87
11053;BME280;55230;42.602;23.470;2023-03-19T10:10:09;93978.09;;;9.75;49.02
11053;BME280;55230;42.602;23.470;2023-03-19T10:12:54;93992.91;;;9.42;49.78
11053;BME280;55230;42.602;23.470;2023-03-19T10:15:27;93887.59;;;8.86;50.46
11053;BME280;55230;42.602;23.470;2023-03-19T10:17:57;93970.69;;;9.92;48.14
11053;BME280;55230;42.602;23.470;2023-03-19T10:20:34;93978.28;;;10.09;48.43
11053;BME280;55230;42.602;23.470;2023-03-19T10:23:19;93966.69;;;10.46;49.27
11053;BME280;55230;42.602;23.470;2023-03-19T10:25:48;93868.53;;;9.97;48.14
11053;BME280;55230;42.602;23.470;2023-03-19T10:28:18;93951.28;;;10.47;46.88
11053;BME280;55230;42.602;23.470;2023-03-19T10:30:48;93842.38;;;9.85;48.27
11053;BME280;55230;42.602;23.470;2023-03-19T10:33:21;93773.19;;;9.82;47.78
11053;BME280;55230;42.602;23.470;2023-03-19T10:35:56;93547.88;;;8.55;43.73
11053;BME280;55230;42.602;23.470;2023-03-19T10:38:25;93952.53;;;11.45;45.33
11053;BME280;55230;42.602;23.470;2023-03-19T10:41:16;93898.25;;;10.66;44.77
11053;BME280;55230;42.602;23.470;2023-03-19T10:43:51;93946.56;;;11.07;44.25
11053;BME280;55230;42.602;23.470;2023-03-19T10:46:18;93906.19;;;10.47;46.18
11053;BME280;55230;42.602;23.470;2023-03-19T10:48:47;93896.47;;;10.50;44.39
11053;BME280;55230;42.602;23.470;2023-03-19T10:51:16;93937.69;;;10.85;44.96
11053;BME280;55230;42.602;23.470;2023-03-19T10:53:46;93768.09;;;9.97;43.96
11053;BME280;55230;42.602;23.470;2023-03-19T10:56:18;93912.91;;;11.42;44.79
11053;BME280;55230;42.602;23.470;2023-03-19T10:59:00;93828.66;;;11.25;43.25
11053;BME280;55230;42.602;23.470;2023-03-19T11:01:32;93882.28;;;11.67;42.57
11053;BME280;55230;42.602;23.470;2023-03-19T11:04:00;93903.34;;;11.50;42.16
11053;BME280;55230;42.602;23.470;2023-03-19T11:06:33;93902.13;;;11.51;43.69
11053;BME280;55230;42.602;23.470;2023-03-19T11:09:11;93891.63;;;11.44;43.58
11053;BME280;55230;42.602;23.470;2023-03-19T11:11:42;93751.03;;;10.77;42.21
11053;BME280;55230;42.602;23.470;2023-03-19T11:14:15;93889.13;;;11.80;41.92
11053;BME280;55230;42.602;23.470;2023-03-19T11:16:47;93884.97;;;11.97;41.91
11053;BME280;55230;42.602;23.470;2023-03-19T11:19:19;93822.94;;;11.85;41.28
11053;BME280;55230;42.602;23.470;2023-03-19T11:21:59;93805.91;;;11.66;43.12
11053;BME280;55230;42.602;23.470;2023-03-19T11:24:27;93876.22;;;11.84;41.43
11053;BME280;55230;42.602;23.470;2023-03-19T11:26:56;93868.63;;;12.01;42.01
11053;BME280;55230;42.602;23.470;2023-03-19T11:29:25;93864.81;;;11.80;42.16
11053;BME280;55230;42.602;23.470;2023-03-19T11:31:58;93859.09;;;11.78;41.39
11053;BME280;55230;42.602;23.470;2023-03-19T11:34:35;93669.28;;;10.59;41.82
11053;BME280;55230;42.602;23.470;2023-03-19T11:37:16;93444.56;;;9.12;41.58
11053;BME280;55230;42.602;23.470;2023-03-19T11:39:51;93850.16;;;12.08;41.57
11053;BME280;55230;42.602;23.470;2023-03-19T11:45:17;93846.03;;;12.52;41.26
11053;BME280;55230;42.602;23.470;2023-03-19T11:47:56;93856.25;;;12.85;41.64
11053;BME280;55230;42.602;23.470;2023-03-19T11:50:29;93840.63;;;12.79;40.43
11053;BME280;55230;42.602;23.470;2023-03-19T11:53:07;93628.19;;;11.52;41.24
11053;BME280;55230;42.602;23.470;2023-03-19T11:55:40;93833.81;;;13.20;39.86
11053;BME280;55230;42.602;23.470;2023-03-19T11:58:42;93826.91;;;13.28;39.59
11053;BME280;55230;42.602;23.470;2023-03-19T12:01:19;93820.59;;;13.64;40.16
11053;BME280;55230;42.602;23.470;2023-03-19T12:06:52;93845.13;;;14.35;39.03
11053;BME280;55230;42.602;23.470;2023-03-19T12:09:28;93811.50;;;13.76;39.15
11053;BME280;55230;42.602;23.470;2023-03-19T12:12:05;93826.91;;;13.28;40.43
11053;BME280;55230;42.602;23.470;2023-03-19T12:14:45;93721.75;;;12.58;39.82
11053;BME280;55230;42.602;23.470;2023-03-19T12:17:43;93660.66;;;12.15;39.98
11053;BME280;55230;42.602;23.470;2023-03-19T12:20:20;93765.31;;;12.69;41.93
11053;BME280;55230;42.602;23.470;2023-03-19T12:22:58;93672.81;;;12.11;39.97
11053;BME280;55230;42.602;23.470;2023-03-19T12:25:39;93738.56;;;12.62;41.01
11053;BME280;55230;42.602;23.470;2023-03-19T12:28:14;93789.47;;;13.00;39.81
11053;BME280;55230;42.602;23.470;2023-03-19T12:30:47;93834.59;;;13.12;39.77
11053;BME280;55230;42.602;23.470;2023-03-19T12:33:30;93713.19;;;12.41;39.26
11053;BME280;55230;42.602;23.470;2023-03-19T12:36:03;93787.94;;;13.26;40.17
11053;BME280;55230;42.602;23.470;2023-03-19T12:38:36;93796.97;;;13.23;39.68
11053;BME280;55230;42.602;23.470;2023-03-19T12:41:08;93744.97;;;12.92;40.35
11053;BME280;55230;42.602;23.470;2023-03-19T12:43:40;93758.63;;;13.15;39.30
11053;BME280;55230;42.602;23.470;2023-03-19T12:46:13;93781.03;;;13.25;39.38
11053;BME280;55230;42.602;23.470;2023-03-19T12:48:45;93804.00;;;13.38;41.29
11053;BME280;55230;42.602;23.470;2023-03-19T12:51:17;93780.31;;;13.48;40.42
11053;BME280;55230;42.602;23.470;2023-03-19T12:53:48;93778.13;;;13.70;39.46
11053;BME280;55230;42.602;23.470;2023-03-19T12:56:24;93749.53;;;13.27;39.05
11053;BME280;55230;42.602;23.470;2023-03-19T12:58:59;93773.41;;;13.79;39.76
11053;BME280;55230;42.602;23.470;2023-03-19T13:01:31;93747.44;;;13.64;38.72
11053;BME280;55230;42.602;23.470;2023-03-19T13:04:05;93760.47;;;13.74;40.31
11053;BME280;55230;42.602;23.470;2023-03-19T13:06:36;93715.94;;;13.43;38.74
11053;BME280;55230;42.602;23.470;2023-03-19T13:09:07;93667.06;;;13.05;39.58
11053;BME280;55230;42.602;23.470;2023-03-19T13:11:44;93775.13;;;13.91;39.16